RYR6MF EHEH-EPKK
Flight info
| Callsign | RYR6MF |
|---|---|
| Flight time | 1h 35m |
| Altitude | 37000 |
| Route | VELNI Y869 SUMOP L179 MEVEL Z44 HMM DCT ZUCKA DCT GOBAX DCT LASIS T714 MOFKE |
| Aircraft | B38M/M-SDE1FGHILORVWXY/HB1 |
Departure
| Time | 2026-05-05 11:19 |
|---|---|
| Airport | Eindhoven Airport (EHEH) |
Arrival
| Time | 2026-05-05 12:54 |
|---|---|
| Airport | Kraków John Paul II International Airport (EPKK) |
| Time | Latitude | Longitude | Altitude | Speed | Heading |
|---|---|---|---|---|---|
| 2026-05-05 10:59 | 51.45896 | 5.39083 | 68 ft | 0 kts | 125° |
| 2026-05-05 11:06 | 51.45900 | 5.39074 | 65 ft | 2 kts | 124° |
| 2026-05-05 11:06 | 51.45909 | 5.39053 | 66 ft | 2 kts | 127° |
| 2026-05-05 11:06 | 51.45916 | 5.39039 | 65 ft | 2 kts | 129° |
| 2026-05-05 11:07 | 51.45927 | 5.39020 | 68 ft | 2 kts | 140° |
| 2026-05-05 11:07 | 51.45941 | 5.39009 | 66 ft | 2 kts | 201° |
| 2026-05-05 11:07 | 51.45950 | 5.39017 | 68 ft | 1 kts | 224° |
| 2026-05-05 11:07 | 51.45950 | 5.39018 | 69 ft | 0 kts | 224° |
| 2026-05-05 11:10 | 51.45950 | 5.39017 | 69 ft | 0 kts | 224° |
| 2026-05-05 11:11 | 51.45935 | 5.38996 | 68 ft | 7 kts | 219° |
| 2026-05-05 11:11 | 51.45876 | 5.38928 | 71 ft | 13 kts | 215° |
| 2026-05-05 11:11 | 51.45799 | 5.38835 | 70 ft | 15 kts | 231° |
| 2026-05-05 11:11 | 51.45826 | 5.38699 | 72 ft | 10 kts | 306° |
| 2026-05-05 11:12 | 51.45844 | 5.38657 | 68 ft | 4 kts | 305° |
| 2026-05-05 11:12 | 51.45860 | 5.38621 | 76 ft | 0 kts | 304° |
| 2026-05-05 11:13 | 51.45864 | 5.38611 | 69 ft | 4 kts | 305° |
| 2026-05-05 11:13 | 51.45894 | 5.38545 | 69 ft | 11 kts | 305° |
| 2026-05-05 11:13 | 51.45954 | 5.38413 | 72 ft | 17 kts | 306° |
| 2026-05-05 11:14 | 51.45994 | 5.38306 | 84 ft | 8 kts | 275° |
| 2026-05-05 11:14 | 51.45957 | 5.38230 | 81 ft | 12 kts | 216° |
| 2026-05-05 11:14 | 51.45866 | 5.38128 | 67 ft | 20 kts | 215° |
| 2026-05-05 11:14 | 51.45745 | 5.37992 | 80 ft | 22 kts | 215° |
| 2026-05-05 11:15 | 51.45610 | 5.37841 | 85 ft | 24 kts | 215° |
| 2026-05-05 11:15 | 51.45464 | 5.37677 | 84 ft | 27 kts | 215° |
| 2026-05-05 11:15 | 51.45300 | 5.37494 | 82 ft | 31 kts | 215° |
| 2026-05-05 11:15 | 51.45132 | 5.37305 | 78 ft | 28 kts | 215° |
| 2026-05-05 11:16 | 51.44970 | 5.37125 | 88 ft | 29 kts | 215° |
| 2026-05-05 11:16 | 51.44808 | 5.36942 | 86 ft | 30 kts | 215° |
| 2026-05-05 11:16 | 51.44630 | 5.36742 | 80 ft | 32 kts | 215° |
| 2026-05-05 11:16 | 51.44455 | 5.36546 | 68 ft | 30 kts | 215° |
| 2026-05-05 11:17 | 51.44304 | 5.36377 | 84 ft | 26 kts | 214° |
| 2026-05-05 11:17 | 51.44174 | 5.36232 | 88 ft | 23 kts | 215° |
| 2026-05-05 11:17 | 51.44041 | 5.36084 | 84 ft | 17 kts | 210° |
| 2026-05-05 11:17 | 51.43948 | 5.36164 | 85 ft | 17 kts | 123° |
| 2026-05-05 11:18 | 51.43956 | 5.36267 | 82 ft | 11 kts | 44° |
| 2026-05-05 11:18 | 51.44023 | 5.36342 | 82 ft | 13 kts | 35° |
| 2026-05-05 11:18 | 51.44147 | 5.36483 | 84 ft | 47 kts | 35° |
| 2026-05-05 11:18 | 51.44632 | 5.37025 | 83 ft | 120 kts | 34° |
| 2026-05-05 11:19 | 51.45432 | 5.37915 | 356 ft | 153 kts | 33° |
| 2026-05-05 11:19 | 51.46342 | 5.38887 | 1013 ft | 159 kts | 33° |
| 2026-05-05 11:19 | 51.47277 | 5.39906 | 1571 ft | 166 kts | 34° |
| 2026-05-05 11:19 | 51.48225 | 5.41028 | 1994 ft | 174 kts | 36° |
| 2026-05-05 11:20 | 51.49248 | 5.42204 | 2205 ft | 189 kts | 34° |
| 2026-05-05 11:20 | 51.50383 | 5.43491 | 2569 ft | 206 kts | 38° |
| 2026-05-05 11:20 | 51.51213 | 5.45409 | 3022 ft | 220 kts | 77° |
| 2026-05-05 11:20 | 51.51143 | 5.47897 | 3532 ft | 230 kts | 103° |
| 2026-05-05 11:21 | 51.50717 | 5.50398 | 4184 ft | 234 kts | 107° |
| 2026-05-05 11:21 | 51.50251 | 5.52924 | 4881 ft | 238 kts | 106° |
| 2026-05-05 11:21 | 51.49806 | 5.55498 | 5566 ft | 241 kts | 105° |
| 2026-05-05 11:21 | 51.49408 | 5.58117 | 6242 ft | 243 kts | 99° |
| 2026-05-05 11:22 | 51.49068 | 5.60840 | 6733 ft | 255 kts | 103° |
| 2026-05-05 11:22 | 51.48639 | 5.63682 | 7130 ft | 270 kts | 103° |
| 2026-05-05 11:22 | 51.48463 | 5.66704 | 7672 ft | 277 kts | 84° |
| 2026-05-05 11:22 | 51.48695 | 5.69771 | 8277 ft | 282 kts | 82° |
| 2026-05-05 11:23 | 51.48977 | 5.72872 | 8912 ft | 286 kts | 82° |
| 2026-05-05 11:23 | 51.49245 | 5.76099 | 9580 ft | 290 kts | 83° |
| 2026-05-05 11:23 | 51.49489 | 5.79281 | 10210 ft | 293 kts | 83° |
| 2026-05-05 11:23 | 51.49743 | 5.82558 | 10657 ft | 304 kts | 83° |
| 2026-05-05 11:24 | 51.50019 | 5.86019 | 10998 ft | 318 kts | 83° |
| 2026-05-05 11:24 | 51.50305 | 5.89621 | 11318 ft | 332 kts | 83° |
| 2026-05-05 11:24 | 51.50596 | 5.93347 | 11799 ft | 340 kts | 83° |
| 2026-05-05 11:24 | 51.50891 | 5.97140 | 12344 ft | 345 kts | 83° |
| 2026-05-05 11:25 | 51.51189 | 6.00979 | 12908 ft | 349 kts | 83° |
| 2026-05-05 11:25 | 51.51490 | 6.04872 | 13484 ft | 353 kts | 83° |
| 2026-05-05 11:25 | 51.51792 | 6.08792 | 14045 ft | 356 kts | 83° |
| 2026-05-05 11:25 | 51.52096 | 6.12756 | 14603 ft | 359 kts | 83° |
| 2026-05-05 11:26 | 51.52400 | 6.16751 | 15153 ft | 362 kts | 83° |
| 2026-05-05 11:26 | 51.52706 | 6.20779 | 15697 ft | 365 kts | 83° |
| 2026-05-05 11:26 | 51.53107 | 6.24814 | 16214 ft | 368 kts | 79° |
| 2026-05-05 11:26 | 51.53619 | 6.28854 | 16738 ft | 370 kts | 78° |
| 2026-05-05 11:27 | 51.54092 | 6.32935 | 17225 ft | 373 kts | 80° |
| 2026-05-05 11:27 | 51.54510 | 6.37067 | 17734 ft | 376 kts | 81° |
| 2026-05-05 11:27 | 51.54938 | 6.41224 | 18219 ft | 378 kts | 80° |
| 2026-05-05 11:27 | 51.55304 | 6.45433 | 18693 ft | 381 kts | 85° |
| 2026-05-05 11:28 | 51.55430 | 6.49700 | 19158 ft | 384 kts | 88° |
| 2026-05-05 11:28 | 51.55526 | 6.53998 | 19612 ft | 386 kts | 86° |
| 2026-05-05 11:28 | 51.55737 | 6.58320 | 20057 ft | 389 kts | 84° |
| 2026-05-05 11:28 | 51.55985 | 6.62665 | 20493 ft | 392 kts | 85° |
| 2026-05-05 11:29 | 51.56183 | 6.67040 | 20927 ft | 394 kts | 86° |
| 2026-05-05 11:29 | 51.56354 | 6.71460 | 21347 ft | 397 kts | 86° |
| 2026-05-05 11:29 | 51.56544 | 6.75900 | 21761 ft | 399 kts | 86° |
| 2026-05-05 11:29 | 51.56750 | 6.80372 | 22167 ft | 402 kts | 86° |
| 2026-05-05 11:30 | 51.56949 | 6.84853 | 22562 ft | 404 kts | 86° |
| 2026-05-05 11:30 | 51.57135 | 6.89322 | 22950 ft | 407 kts | 86° |
| 2026-05-05 11:30 | 51.57325 | 6.93871 | 23333 ft | 409 kts | 86° |
| 2026-05-05 11:30 | 51.57519 | 6.98452 | 23720 ft | 412 kts | 86° |
| 2026-05-05 11:31 | 51.57713 | 7.03053 | 24081 ft | 414 kts | 86° |
| 2026-05-05 11:31 | 51.57904 | 7.07692 | 24451 ft | 416 kts | 86° |
| 2026-05-05 11:31 | 51.58093 | 7.12351 | 24809 ft | 419 kts | 86° |
| 2026-05-05 11:31 | 51.58283 | 7.17033 | 25154 ft | 421 kts | 86° |
| 2026-05-05 11:32 | 51.58472 | 7.21743 | 25498 ft | 423 kts | 86° |
| 2026-05-05 11:32 | 51.58660 | 7.26480 | 25844 ft | 426 kts | 86° |
| 2026-05-05 11:32 | 51.58847 | 7.31247 | 26179 ft | 428 kts | 86° |
| 2026-05-05 11:32 | 51.59032 | 7.36021 | 26493 ft | 430 kts | 86° |
| 2026-05-05 11:33 | 51.59218 | 7.40848 | 26814 ft | 432 kts | 86° |
| 2026-05-05 11:33 | 51.59402 | 7.45681 | 27127 ft | 434 kts | 86° |
| 2026-05-05 11:33 | 51.59585 | 7.50543 | 27436 ft | 436 kts | 86° |
| 2026-05-05 11:33 | 51.59766 | 7.55428 | 27739 ft | 439 kts | 86° |
| 2026-05-05 11:34 | 51.59947 | 7.60341 | 28038 ft | 441 kts | 86° |
| 2026-05-05 11:34 | 51.60126 | 7.65268 | 28333 ft | 443 kts | 86° |
| 2026-05-05 11:34 | 51.60304 | 7.70220 | 28623 ft | 445 kts | 86° |
| 2026-05-05 11:34 | 51.60481 | 7.75199 | 28905 ft | 447 kts | 86° |
| 2026-05-05 11:35 | 51.60656 | 7.80198 | 29178 ft | 449 kts | 86° |
| 2026-05-05 11:35 | 51.60830 | 7.85222 | 29456 ft | 451 kts | 86° |
| 2026-05-05 11:35 | 51.61003 | 7.90267 | 29733 ft | 453 kts | 87° |
| 2026-05-05 11:35 | 51.61174 | 7.95340 | 29997 ft | 455 kts | 87° |
| 2026-05-05 11:36 | 51.61344 | 8.00428 | 30249 ft | 456 kts | 87° |
| 2026-05-05 11:36 | 51.61510 | 8.05470 | 30512 ft | 458 kts | 87° |
| 2026-05-05 11:36 | 51.61677 | 8.10605 | 30770 ft | 460 kts | 87° |
| 2026-05-05 11:36 | 51.61842 | 8.15753 | 31020 ft | 462 kts | 87° |
| 2026-05-05 11:37 | 51.62005 | 8.20929 | 31268 ft | 464 kts | 87° |
| 2026-05-05 11:37 | 51.62167 | 8.26125 | 31517 ft | 466 kts | 87° |
| 2026-05-05 11:37 | 51.62327 | 8.31341 | 31753 ft | 467 kts | 87° |
| 2026-05-05 11:37 | 51.62486 | 8.36570 | 31986 ft | 469 kts | 87° |
| 2026-05-05 11:38 | 51.62642 | 8.41826 | 32229 ft | 471 kts | 87° |
| 2026-05-05 11:38 | 51.62797 | 8.47096 | 32542 ft | 471 kts | 87° |
| 2026-05-05 11:38 | 51.62949 | 8.52356 | 32882 ft | 470 kts | 87° |
| 2026-05-05 11:38 | 51.63099 | 8.57598 | 33211 ft | 469 kts | 87° |
| 2026-05-05 11:39 | 51.63246 | 8.62843 | 33540 ft | 468 kts | 87° |
| 2026-05-05 11:39 | 51.63390 | 8.68078 | 33848 ft | 468 kts | 87° |
| 2026-05-05 11:39 | 51.63532 | 8.73306 | 34162 ft | 468 kts | 87° |
| 2026-05-05 11:39 | 51.63671 | 8.78527 | 34470 ft | 467 kts | 88° |
| 2026-05-05 11:40 | 51.63808 | 8.83756 | 34772 ft | 467 kts | 88° |
| 2026-05-05 11:40 | 51.63943 | 8.88973 | 35075 ft | 467 kts | 88° |
| 2026-05-05 11:40 | 51.64073 | 8.94087 | 35364 ft | 466 kts | 88° |
| 2026-05-05 11:40 | 51.64203 | 8.99313 | 35649 ft | 466 kts | 88° |
| 2026-05-05 11:41 | 51.64330 | 9.04522 | 35929 ft | 466 kts | 88° |
| 2026-05-05 11:41 | 51.64456 | 9.09731 | 36180 ft | 466 kts | 88° |
| 2026-05-05 11:41 | 51.64579 | 9.14944 | 36426 ft | 466 kts | 88° |
| 2026-05-05 11:41 | 51.64699 | 9.20162 | 36661 ft | 467 kts | 88° |
| 2026-05-05 11:42 | 51.64818 | 9.25387 | 36899 ft | 467 kts | 88° |
| 2026-05-05 11:42 | 51.65046 | 9.35766 | 36987 ft | 460 kts | 88° |
| 2026-05-05 11:43 | 51.65263 | 9.45997 | 36997 ft | 456 kts | 88° |
| 2026-05-05 11:43 | 51.65469 | 9.56174 | 36994 ft | 454 kts | 88° |
| 2026-05-05 11:44 | 51.65667 | 9.66361 | 36992 ft | 454 kts | 88° |
| 2026-05-05 11:44 | 51.65855 | 9.76464 | 36994 ft | 455 kts | 88° |
| 2026-05-05 11:45 | 51.66035 | 9.86644 | 36993 ft | 455 kts | 88° |
| 2026-05-05 11:45 | 51.66206 | 9.96812 | 36993 ft | 454 kts | 88° |
| 2026-05-05 11:46 | 51.66368 | 10.06980 | 36994 ft | 455 kts | 88° |
| 2026-05-05 11:46 | 51.66522 | 10.17186 | 36994 ft | 454 kts | 89° |
| 2026-05-05 11:47 | 51.66667 | 10.27354 | 36994 ft | 455 kts | 89° |
| 2026-05-05 11:47 | 51.66803 | 10.37546 | 36994 ft | 455 kts | 89° |
| 2026-05-05 11:48 | 51.66992 | 10.52891 | 36996 ft | 457 kts | 89° |
| 2026-05-05 11:48 | 51.67106 | 10.63056 | 36996 ft | 458 kts | 89° |
| 2026-05-05 11:49 | 51.67212 | 10.73300 | 36997 ft | 458 kts | 89° |
| 2026-05-05 11:49 | 51.67308 | 10.83541 | 36998 ft | 457 kts | 89° |
| 2026-05-05 11:50 | 51.67161 | 10.93780 | 37005 ft | 457 kts | 95° |
| 2026-05-05 11:50 | 51.66573 | 11.03974 | 37008 ft | 457 kts | 95° |
| 2026-05-05 11:51 | 51.66023 | 11.14161 | 37010 ft | 456 kts | 95° |
| 2026-05-05 11:51 | 51.65442 | 11.24342 | 37011 ft | 456 kts | 95° |
| 2026-05-05 11:52 | 51.64861 | 11.34524 | 37007 ft | 456 kts | 95° |
| 2026-05-05 11:52 | 51.64372 | 11.42964 | 37008 ft | 456 kts | 95° |
| 2026-05-05 11:53 | 51.63773 | 11.53118 | 37008 ft | 455 kts | 95° |
| 2026-05-05 11:53 | 51.63173 | 11.63185 | 37008 ft | 455 kts | 95° |
| 2026-05-05 11:54 | 51.62558 | 11.73318 | 37008 ft | 455 kts | 96° |
| 2026-05-05 11:54 | 51.61935 | 11.83458 | 37009 ft | 455 kts | 96° |
| 2026-05-05 11:55 | 51.61303 | 11.93588 | 37010 ft | 455 kts | 96° |
| 2026-05-05 11:55 | 51.60663 | 12.03704 | 37010 ft | 455 kts | 96° |
| 2026-05-05 11:56 | 51.60014 | 12.13817 | 37011 ft | 455 kts | 96° |
| 2026-05-05 11:56 | 51.59357 | 12.23930 | 37011 ft | 455 kts | 96° |
| 2026-05-05 11:57 | 51.58690 | 12.34052 | 37008 ft | 455 kts | 96° |
| 2026-05-05 11:57 | 51.58016 | 12.44160 | 37009 ft | 455 kts | 96° |
| 2026-05-05 11:58 | 51.57332 | 12.54265 | 37010 ft | 454 kts | 96° |
| 2026-05-05 11:58 | 51.56645 | 12.64293 | 37009 ft | 454 kts | 96° |
| 2026-05-05 11:59 | 51.55946 | 12.74378 | 37009 ft | 454 kts | 96° |
| 2026-05-05 11:59 | 51.55280 | 12.84344 | 37009 ft | 454 kts | 95° |
| 2026-05-05 12:00 | 51.54718 | 12.94451 | 37009 ft | 454 kts | 96° |
| 2026-05-05 12:00 | 51.54075 | 13.04552 | 37010 ft | 454 kts | 96° |
| 2026-05-05 12:01 | 51.53462 | 13.14656 | 37011 ft | 454 kts | 96° |
| 2026-05-05 12:01 | 51.52822 | 13.24742 | 37011 ft | 454 kts | 96° |
| 2026-05-05 12:02 | 51.52181 | 13.34836 | 37011 ft | 454 kts | 96° |
| 2026-05-05 12:02 | 51.51529 | 13.44926 | 37009 ft | 455 kts | 96° |
| 2026-05-05 12:03 | 51.50868 | 13.55023 | 37007 ft | 455 kts | 96° |
| 2026-05-05 12:03 | 51.50198 | 13.65119 | 37008 ft | 454 kts | 96° |
| 2026-05-05 12:04 | 51.49519 | 13.75215 | 37008 ft | 454 kts | 96° |
| 2026-05-05 12:04 | 51.48832 | 13.85295 | 37009 ft | 455 kts | 96° |
| 2026-05-05 12:05 | 51.48137 | 13.95375 | 37009 ft | 455 kts | 96° |
| 2026-05-05 12:05 | 51.47433 | 14.05445 | 37009 ft | 455 kts | 96° |
| 2026-05-05 12:06 | 51.46720 | 14.15525 | 37009 ft | 455 kts | 96° |
| 2026-05-05 12:06 | 51.45999 | 14.25592 | 37010 ft | 455 kts | 96° |
| 2026-05-05 12:07 | 51.45269 | 14.35665 | 37010 ft | 455 kts | 97° |
| 2026-05-05 12:07 | 51.44530 | 14.45732 | 37011 ft | 455 kts | 97° |
| 2026-05-05 12:08 | 51.43782 | 14.55806 | 37011 ft | 455 kts | 97° |
| 2026-05-05 12:08 | 51.43026 | 14.65861 | 37011 ft | 455 kts | 97° |
| 2026-05-05 12:09 | 51.42261 | 14.75928 | 37008 ft | 455 kts | 97° |
| 2026-05-05 12:09 | 51.41493 | 14.85918 | 37008 ft | 455 kts | 97° |
| 2026-05-05 12:10 | 51.40617 | 14.95956 | 37018 ft | 454 kts | 107° |
| 2026-05-05 12:10 | 51.38336 | 15.05389 | 37010 ft | 455 kts | 113° |
| 2026-05-05 12:11 | 51.35896 | 15.14736 | 37011 ft | 455 kts | 112° |
| 2026-05-05 12:11 | 51.33485 | 15.24101 | 37010 ft | 455 kts | 112° |
| 2026-05-05 12:12 | 51.31035 | 15.33458 | 37011 ft | 455 kts | 112° |
| 2026-05-05 12:12 | 51.28599 | 15.42802 | 37009 ft | 455 kts | 112° |
| 2026-05-05 12:13 | 51.26160 | 15.52072 | 37010 ft | 455 kts | 113° |
| 2026-05-05 12:13 | 51.23703 | 15.61394 | 37010 ft | 456 kts | 113° |
| 2026-05-05 12:14 | 51.21235 | 15.70712 | 37011 ft | 456 kts | 113° |
| 2026-05-05 12:14 | 51.18760 | 15.80022 | 37011 ft | 456 kts | 113° |
| 2026-05-05 12:15 | 51.16282 | 15.89314 | 37009 ft | 456 kts | 112° |
| 2026-05-05 12:15 | 51.13899 | 15.98677 | 37009 ft | 456 kts | 112° |
| 2026-05-05 12:16 | 51.11478 | 16.08005 | 37010 ft | 456 kts | 112° |
| 2026-05-05 12:16 | 51.09056 | 16.17339 | 37011 ft | 456 kts | 112° |
| 2026-05-05 12:17 | 51.06630 | 16.26654 | 37011 ft | 456 kts | 112° |
| 2026-05-05 12:17 | 51.04205 | 16.35908 | 37011 ft | 456 kts | 112° |
| 2026-05-05 12:18 | 51.01763 | 16.45208 | 37009 ft | 456 kts | 112° |
| 2026-05-05 12:18 | 50.99310 | 16.54499 | 37009 ft | 456 kts | 113° |
| 2026-05-05 12:19 | 50.96849 | 16.63787 | 37010 ft | 456 kts | 113° |
| 2026-05-05 12:19 | 50.94383 | 16.73050 | 37011 ft | 456 kts | 113° |
| 2026-05-05 12:20 | 50.91907 | 16.82319 | 37011 ft | 456 kts | 113° |
| 2026-05-05 12:20 | 50.89425 | 16.91571 | 37011 ft | 456 kts | 113° |
| 2026-05-05 12:21 | 50.86936 | 17.00811 | 37012 ft | 456 kts | 113° |
| 2026-05-05 12:21 | 50.84440 | 17.10038 | 37008 ft | 456 kts | 113° |
| 2026-05-05 12:22 | 50.81923 | 17.19253 | 37008 ft | 456 kts | 114° |
| 2026-05-05 12:22 | 50.79379 | 17.28429 | 36894 ft | 454 kts | 114° |
| 2026-05-05 12:23 | 50.78118 | 17.33002 | 36382 ft | 454 kts | 114° |
| 2026-05-05 12:23 | 50.76867 | 17.37521 | 35798 ft | 455 kts | 114° |
| 2026-05-05 12:23 | 50.75595 | 17.42091 | 35195 ft | 455 kts | 114° |
| 2026-05-05 12:23 | 50.74323 | 17.46654 | 34593 ft | 454 kts | 114° |
| 2026-05-05 12:24 | 50.73050 | 17.51218 | 33971 ft | 454 kts | 114° |
| 2026-05-05 12:24 | 50.71792 | 17.55788 | 33328 ft | 454 kts | 113° |
| 2026-05-05 12:24 | 50.70549 | 17.60366 | 32675 ft | 454 kts | 113° |
| 2026-05-05 12:24 | 50.69297 | 17.64943 | 32019 ft | 454 kts | 114° |
| 2026-05-05 12:25 | 50.68036 | 17.69499 | 31347 ft | 453 kts | 114° |
| 2026-05-05 12:25 | 50.66775 | 17.74048 | 30680 ft | 452 kts | 114° |
| 2026-05-05 12:25 | 50.65521 | 17.78593 | 30016 ft | 451 kts | 114° |
| 2026-05-05 12:25 | 50.64268 | 17.83127 | 29344 ft | 450 kts | 114° |
| 2026-05-05 12:26 | 50.63033 | 17.87573 | 28677 ft | 436 kts | 114° |
| 2026-05-05 12:26 | 50.61835 | 17.91873 | 28042 ft | 422 kts | 114° |
| 2026-05-05 12:26 | 50.60626 | 17.96007 | 27435 ft | 409 kts | 118° |
| 2026-05-05 12:26 | 50.59320 | 17.99917 | 26841 ft | 399 kts | 114° |
| 2026-05-05 12:27 | 50.58602 | 18.04091 | 26273 ft | 397 kts | 95° |
| 2026-05-05 12:27 | 50.58441 | 18.08491 | 25685 ft | 412 kts | 92° |
| 2026-05-05 12:27 | 50.58345 | 18.13040 | 25070 ft | 419 kts | 92° |
| 2026-05-05 12:27 | 50.58228 | 18.17629 | 24451 ft | 419 kts | 92° |
| 2026-05-05 12:28 | 50.58076 | 18.22190 | 23832 ft | 417 kts | 93° |
| 2026-05-05 12:28 | 50.57925 | 18.26740 | 23218 ft | 415 kts | 92° |
| 2026-05-05 12:28 | 50.57792 | 18.31260 | 22612 ft | 413 kts | 92° |
| 2026-05-05 12:28 | 50.57660 | 18.35771 | 22007 ft | 411 kts | 92° |
| 2026-05-05 12:29 | 50.57518 | 18.40242 | 21404 ft | 409 kts | 93° |
| 2026-05-05 12:29 | 50.57372 | 18.44680 | 21034 ft | 400 kts | 93° |
| 2026-05-05 12:29 | 50.57221 | 18.48985 | 20738 ft | 391 kts | 93° |
| 2026-05-05 12:29 | 50.57057 | 18.53215 | 20364 ft | 384 kts | 94° |
| 2026-05-05 12:30 | 50.56897 | 18.57382 | 20104 ft | 379 kts | 93° |
| 2026-05-05 12:30 | 50.56745 | 18.61501 | 19842 ft | 377 kts | 93° |
| 2026-05-05 12:30 | 50.56592 | 18.65606 | 19580 ft | 374 kts | 93° |
| 2026-05-05 12:30 | 50.56437 | 18.69626 | 19317 ft | 372 kts | 94° |
| 2026-05-05 12:31 | 50.56376 | 18.73728 | 19052 ft | 370 kts | 89° |
| 2026-05-05 12:31 | 50.56405 | 18.77770 | 18802 ft | 369 kts | 90° |
| 2026-05-05 12:31 | 50.56394 | 18.81793 | 18544 ft | 367 kts | 90° |
| 2026-05-05 12:31 | 50.56402 | 18.85804 | 18276 ft | 366 kts | 89° |
| 2026-05-05 12:32 | 50.56429 | 18.89742 | 18034 ft | 365 kts | 89° |
| 2026-05-05 12:32 | 50.56451 | 18.93733 | 17784 ft | 363 kts | 90° |
| 2026-05-05 12:32 | 50.56460 | 18.97667 | 17525 ft | 356 kts | 90° |
| 2026-05-05 12:32 | 50.56468 | 19.01519 | 17268 ft | 348 kts | 90° |
| 2026-05-05 12:33 | 50.56479 | 19.05290 | 17022 ft | 341 kts | 90° |
| 2026-05-05 12:33 | 50.56489 | 19.08991 | 16785 ft | 335 kts | 90° |
| 2026-05-05 12:33 | 50.56497 | 19.12618 | 16578 ft | 328 kts | 90° |
| 2026-05-05 12:33 | 50.56488 | 19.16184 | 16424 ft | 325 kts | 90° |
| 2026-05-05 12:34 | 50.56462 | 19.19733 | 16221 ft | 324 kts | 90° |
| 2026-05-05 12:34 | 50.56441 | 19.23256 | 16005 ft | 322 kts | 90° |
| 2026-05-05 12:34 | 50.56425 | 19.26770 | 15785 ft | 320 kts | 90° |
| 2026-05-05 12:34 | 50.56408 | 19.30266 | 15557 ft | 319 kts | 90° |
| 2026-05-05 12:35 | 50.56387 | 19.33750 | 15341 ft | 318 kts | 90° |
| 2026-05-05 12:35 | 50.56366 | 19.37220 | 15113 ft | 317 kts | 90° |
| 2026-05-05 12:35 | 50.56343 | 19.40681 | 14897 ft | 316 kts | 90° |
| 2026-05-05 12:35 | 50.56321 | 19.44080 | 14680 ft | 314 kts | 90° |
| 2026-05-05 12:36 | 50.56297 | 19.47554 | 14458 ft | 313 kts | 90° |
| 2026-05-05 12:36 | 50.56272 | 19.50931 | 14240 ft | 312 kts | 90° |
| 2026-05-05 12:36 | 50.56247 | 19.54340 | 14023 ft | 312 kts | 90° |
| 2026-05-05 12:36 | 50.56220 | 19.57744 | 13797 ft | 311 kts | 91° |
| 2026-05-05 12:37 | 50.56169 | 19.61133 | 13578 ft | 309 kts | 98° |
| 2026-05-05 12:37 | 50.55409 | 19.64232 | 13396 ft | 307 kts | 128° |
| 2026-05-05 12:37 | 50.53808 | 19.66418 | 13195 ft | 306 kts | 151° |
| 2026-05-05 12:37 | 50.51909 | 19.67913 | 12965 ft | 305 kts | 155° |
| 2026-05-05 12:38 | 50.49986 | 19.69301 | 12732 ft | 304 kts | 155° |
| 2026-05-05 12:38 | 50.48087 | 19.70769 | 12509 ft | 303 kts | 153° |
| 2026-05-05 12:38 | 50.46211 | 19.72279 | 12292 ft | 303 kts | 153° |
| 2026-05-05 12:38 | 50.44331 | 19.73766 | 12078 ft | 302 kts | 154° |
| 2026-05-05 12:39 | 50.43088 | 19.74732 | 11937 ft | 301 kts | 154° |
| 2026-05-05 12:39 | 50.41208 | 19.76192 | 11708 ft | 301 kts | 154° |
| 2026-05-05 12:39 | 50.39338 | 19.77654 | 11511 ft | 300 kts | 154° |
| 2026-05-05 12:39 | 50.37472 | 19.79114 | 11298 ft | 299 kts | 154° |
| 2026-05-05 12:40 | 50.35614 | 19.80564 | 11087 ft | 298 kts | 154° |
| 2026-05-05 12:40 | 50.33759 | 19.82008 | 10877 ft | 297 kts | 154° |
| 2026-05-05 12:40 | 50.31914 | 19.83444 | 10661 ft | 296 kts | 154° |
| 2026-05-05 12:40 | 50.30082 | 19.84870 | 10457 ft | 291 kts | 154° |
| 2026-05-05 12:41 | 50.28286 | 19.86274 | 10248 ft | 287 kts | 154° |
| 2026-05-05 12:41 | 50.26513 | 19.87659 | 10046 ft | 284 kts | 154° |
| 2026-05-05 12:41 | 50.24751 | 19.89034 | 9848 ft | 282 kts | 154° |
| 2026-05-05 12:41 | 50.22997 | 19.90399 | 9651 ft | 281 kts | 154° |
| 2026-05-05 12:42 | 50.21251 | 19.91770 | 9443 ft | 279 kts | 151° |
| 2026-05-05 12:42 | 50.19869 | 19.93802 | 9254 ft | 275 kts | 117° |
| 2026-05-05 12:42 | 50.19396 | 19.96627 | 9085 ft | 270 kts | 88° |
| 2026-05-05 12:42 | 50.19671 | 19.99505 | 8880 ft | 267 kts | 77° |
| 2026-05-05 12:43 | 50.20095 | 20.02308 | 8688 ft | 264 kts | 76° |
| 2026-05-05 12:43 | 50.20500 | 20.05088 | 8493 ft | 261 kts | 78° |
| 2026-05-05 12:43 | 50.20864 | 20.07851 | 8299 ft | 259 kts | 78° |
| 2026-05-05 12:43 | 50.21224 | 20.10590 | 8113 ft | 256 kts | 78° |
| 2026-05-05 12:44 | 50.21590 | 20.13304 | 7931 ft | 254 kts | 78° |
| 2026-05-05 12:44 | 50.21955 | 20.15994 | 7752 ft | 252 kts | 78° |
| 2026-05-05 12:44 | 50.22314 | 20.18671 | 7578 ft | 252 kts | 78° |
| 2026-05-05 12:44 | 50.22672 | 20.21338 | 7398 ft | 251 kts | 78° |
| 2026-05-05 12:45 | 50.23032 | 20.24005 | 7228 ft | 250 kts | 78° |
| 2026-05-05 12:45 | 50.23391 | 20.26659 | 7044 ft | 249 kts | 78° |
| 2026-05-05 12:45 | 50.23556 | 20.29328 | 6864 ft | 248 kts | 103° |
| 2026-05-05 12:45 | 50.22737 | 20.31628 | 6716 ft | 246 kts | 141° |
| 2026-05-05 12:46 | 50.21200 | 20.32727 | 6568 ft | 245 kts | 167° |
| 2026-05-05 12:46 | 50.19534 | 20.33212 | 6405 ft | 237 kts | 171° |
| 2026-05-05 12:46 | 50.17982 | 20.33615 | 6233 ft | 215 kts | 173° |
| 2026-05-05 12:46 | 50.16575 | 20.33345 | 6045 ft | 198 kts | 204° |
| 2026-05-05 12:47 | 50.15518 | 20.32123 | 5865 ft | 185 kts | 233° |
| 2026-05-05 12:47 | 50.14967 | 20.30345 | 5705 ft | 182 kts | 256° |
| 2026-05-05 12:47 | 50.14689 | 20.28456 | 5570 ft | 181 kts | 258° |
| 2026-05-05 12:47 | 50.14421 | 20.26537 | 5441 ft | 181 kts | 258° |
| 2026-05-05 12:48 | 50.14157 | 20.24630 | 5312 ft | 180 kts | 258° |
| 2026-05-05 12:48 | 50.13873 | 20.22586 | 5164 ft | 210 kts | 258° |
| 2026-05-05 12:48 | 50.13556 | 20.20303 | 4997 ft | 217 kts | 258° |
| 2026-05-05 12:48 | 50.13237 | 20.18004 | 4831 ft | 218 kts | 258° |
| 2026-05-05 12:49 | 50.12922 | 20.15692 | 4629 ft | 218 kts | 258° |
| 2026-05-05 12:49 | 50.12602 | 20.13376 | 4461 ft | 220 kts | 258° |
| 2026-05-05 12:49 | 50.12279 | 20.11044 | 4281 ft | 220 kts | 258° |
| 2026-05-05 12:49 | 50.11956 | 20.08716 | 4093 ft | 220 kts | 258° |
| 2026-05-05 12:50 | 50.11633 | 20.06395 | 3926 ft | 215 kts | 258° |
| 2026-05-05 12:50 | 50.11335 | 20.04230 | 3764 ft | 194 kts | 258° |
| 2026-05-05 12:50 | 50.11067 | 20.02296 | 3557 ft | 175 kts | 258° |
| 2026-05-05 12:50 | 50.10808 | 20.00431 | 3401 ft | 176 kts | 258° |
| 2026-05-05 12:51 | 50.10554 | 19.98588 | 3245 ft | 173 kts | 258° |
| 2026-05-05 12:51 | 50.10300 | 19.96755 | 3142 ft | 171 kts | 258° |
| 2026-05-05 12:51 | 50.10048 | 19.94933 | 3149 ft | 173 kts | 258° |
| 2026-05-05 12:51 | 50.09803 | 19.93136 | 3122 ft | 163 kts | 257° |
| 2026-05-05 12:52 | 50.09553 | 19.91444 | 2918 ft | 154 kts | 257° |
| 2026-05-05 12:52 | 50.09337 | 19.89844 | 2566 ft | 151 kts | 259° |
| 2026-05-05 12:52 | 50.09129 | 19.88257 | 2215 ft | 147 kts | 258° |
| 2026-05-05 12:52 | 50.08915 | 19.86719 | 1869 ft | 143 kts | 258° |
| 2026-05-05 12:53 | 50.08707 | 19.85213 | 1539 ft | 142 kts | 257° |
| 2026-05-05 12:53 | 50.08497 | 19.83749 | 1384 ft | 136 kts | 258° |
| 2026-05-05 12:53 | 50.08297 | 19.82294 | 1162 ft | 137 kts | 259° |
| 2026-05-05 12:53 | 50.08100 | 19.80865 | 961 ft | 134 kts | 257° |
| 2026-05-05 12:54 | 50.07769 | 19.78471 | 796 ft | 64 kts | 258° |
| 2026-05-05 12:54 | 50.07698 | 19.78114 | 795 ft | 20 kts | 214° |
| 2026-05-05 12:54 | 50.07576 | 19.78087 | 796 ft | 17 kts | 182° |
| 2026-05-05 12:55 | 50.07478 | 19.78109 | 796 ft | 11 kts | 128° |
| 2026-05-05 12:55 | 50.07482 | 19.78230 | 796 ft | 13 kts | 76° |
| 2026-05-05 12:55 | 50.07508 | 19.78413 | 795 ft | 21 kts | 78° |
| 2026-05-05 12:55 | 50.07542 | 19.78661 | 795 ft | 25 kts | 78° |
| 2026-05-05 12:56 | 50.07580 | 19.78934 | 794 ft | 27 kts | 78° |
| 2026-05-05 12:56 | 50.07620 | 19.79230 | 793 ft | 29 kts | 78° |
| 2026-05-05 12:56 | 50.07662 | 19.79536 | 792 ft | 22 kts | 78° |
| 2026-05-05 12:56 | 50.07621 | 19.79754 | 791 ft | 23 kts | 124° |
| 2026-05-05 12:57 | 50.07528 | 19.79926 | 791 ft | 16 kts | 165° |
| 2026-05-05 12:57 | 50.07413 | 19.79963 | 791 ft | 18 kts | 161° |
| 2026-05-05 12:57 | 50.07315 | 19.80012 | 791 ft | 3 kts | 167° |